Time;durP1;ratioP1;P1;durP2;ratioP2;P2;SDS_P1;SDS_P2;PMS_P1;PMS_P2;Temp;Humidity;BMP_temperature;BMP_pressure;BME280_temperature;BME280_humidity;BME280_pressure;Samples;Min_cycle;Max_cycle;Signal;HPM_P1;HPM_P2
2023/05/20 00:00:58;;;;;;;2.75;1.48;;;;;;;32.95;29.50;100850.84;4860662;29;20053;-72
2023/05/20 00:03:28;;;;;;;4.95;1.50;;;;;;;32.96;30.48;100853.44;4858822;29;20443;-72
2023/05/20 00:05:58;;;;;;;1.90;1.48;;;;;;;33.00;30.19;100853.22;4849380;29;20070;-73
2023/05/20 00:08:27;;;;;;;2.85;1.50;;;;;;;33.02;29.98;100857.53;4854022;29;20049;-73
2023/05/20 00:10:55;;;;;;;8.05;2.15;;;;;;;33.06;29.64;100855.56;4856508;29;20076;-72
2023/05/20 00:13:24;;;;;;;2.83;1.60;;;;;;;33.07;31.25;100860.81;4858318;29;20058;-72
2023/05/20 00:15:53;;;;;;;3.83;1.70;;;;;;;33.08;30.32;100859.88;4870404;29;20049;-71
2023/05/20 00:18:22;;;;;;;4.63;1.77;;;;;;;33.12;29.23;100858.72;4864586;29;20060;-73
2023/05/20 00:20:52;;;;;;;2.55;1.48;;;;;;;33.17;28.28;100863.78;4858263;29;20073;-73
2023/05/20 00:23:23;;;;;;;2.50;1.38;;;;;;;33.08;27.17;100858.97;4856462;29;20492;-72
2023/05/20 00:25:51;;;;;;;6.35;1.67;;;;;;;32.99;28.51;100857.72;4858239;29;20137;-72
2023/05/20 00:28:20;;;;;;;2.45;1.25;;;;;;;32.97;28.93;100859.66;4849097;29;20123;-74
2023/05/20 00:30:49;;;;;;;4.20;1.20;;;;;;;32.96;28.66;100863.25;4862082;29;20053;-73
2023/05/20 00:33:17;;;;;;;3.55;1.55;;;;;;;32.93;29.29;100853.59;4855612;29;20049;-71
2023/05/20 00:35:46;;;;;;;3.22;1.40;;;;;;;32.92;28.94;100867.13;4861808;29;20057;-73
2023/05/20 00:38:14;;;;;;;5.07;1.60;;;;;;;32.94;31.48;100859.81;4868900;29;20113;-72
2023/05/20 00:40:44;;;;;;;3.20;1.55;;;;;;;32.92;32.25;100856.41;4856229;29;20568;-74
2023/05/20 00:43:13;;;;;;;3.92;1.52;;;;;;;32.88;31.61;100850.34;4865902;29;20168;-74
2023/05/20 00:45:42;;;;;;;4.32;2.15;;;;;;;32.85;32.08;100849.66;4858621;29;20068;-74
2023/05/20 00:48:10;;;;;;;3.92;1.77;;;;;;;32.82;30.68;100850.72;4857255;29;20054;-72
2023/05/20 00:50:40;;;;;;;4.43;1.70;;;;;;;32.78;29.55;100842.97;4856302;29;20057;-72
2023/05/20 00:53:08;;;;;;;3.88;1.52;;;;;;;32.73;27.44;100840.59;4851602;29;20053;-73
2023/05/20 00:55:37;;;;;;;1.20;1.10;;;;;;;32.63;29.74;100828.72;4853228;29;20046;-72
2023/05/20 00:58:07;;;;;;;2.85;1.27;;;;;;;32.64;29.72;100841.16;4852432;29;20480;-73
2023/05/20 01:00:36;;;;;;;3.33;1.30;;;;;;;32.61;29.29;100846.72;4857054;29;20050;-73
2023/05/20 01:03:05;;;;;;;2.42;2.13;;;;;;;32.59;29.18;100849.47;4849421;29;20109;-73
2023/05/20 01:05:33;;;;;;;2.92;1.65;;;;;;;32.59;31.26;100837.91;4843004;29;20053;-74
2023/05/20 01:08:04;;;;;;;2.30;1.58;;;;;;;32.53;29.75;100839.16;4862606;29;20499;-73
2023/05/20 01:10:34;;;;;;;3.97;1.73;;;;;;;32.53;29.71;100848.06;4858073;29;20628;-74
2023/05/20 01:13:10;;;;;;;3.25;1.42;;;;;;;32.48;30.28;100847.44;4844486;29;20331;-75
2023/05/20 01:15:41;;;;;;;2.13;1.30;;;;;;;32.39;28.64;100847.13;4857551;29;20063;-74
2023/05/20 01:18:11;;;;;;;3.58;1.67;;;;;;;32.31;29.38;100839.56;4856286;29;20081;-73
2023/05/20 01:20:40;;;;;;;4.60;1.70;;;;;;;32.27;30.30;100838.00;4859886;29;20050;-73
2023/05/20 01:23:10;;;;;;;2.47;1.65;;;;;;;32.27;30.60;100841.53;4859914;29;20114;-73
2023/05/20 01:25:39;;;;;;;3.85;1.95;;;;;;;32.25;30.66;100843.44;4846975;29;20101;-73
2023/05/20 01:28:08;;;;;;;2.80;1.50;;;;;;;32.26;34.17;100847.88;4861374;29;20045;-73
2023/05/20 01:30:42;;;;;;;4.75;2.08;;;;;;;32.22;31.98;100851.69;4855989;29;20053;-73
2023/05/20 01:33:13;;;;;;;4.00;1.70;;;;;;;32.16;32.50;100856.53;4852209;29;20050;-73
2023/05/20 01:35:43;;;;;;;3.13;1.85;;;;;;;32.11;33.41;100867.50;4834868;29;20652;-74
2023/05/20 01:38:22;;;;;;;4.68;1.63;;;;;;;32.01;33.68;100863.66;4832715;29;20076;-73
2023/05/20 01:40:51;;;;;;;2.63;1.58;;;;;;;31.91;33.17;100864.16;4823099;29;20065;-73
2023/05/20 01:43:20;;;;;;;3.42;1.67;;;;;;;31.87;34.09;100881.34;4834886;29;20053;-72
2023/05/20 01:45:49;;;;;;;5.32;1.80;;;;;;;31.79;33.79;100888.94;4829225;29;20914;-73
2023/05/20 01:48:17;;;;;;;3.10;1.60;;;;;;;31.71;32.31;100883.19;4834343;29;20216;-74
2023/05/20 01:50:46;;;;;;;2.88;1.55;;;;;;;31.69;33.13;100891.28;4820132;29;20497;-74
2023/05/20 01:53:16;;;;;;;3.08;1.88;;;;;;;31.68;33.54;100886.91;4833356;29;20935;-74
2023/05/20 01:55:45;;;;;;;3.28;2.08;;;;;;;31.65;33.61;100879.03;4830661;29;20062;-73
2023/05/20 01:58:13;;;;;;;2.15;1.70;;;;;;;31.65;33.15;100881.72;4826598;29;20122;-73
2023/05/20 02:00:42;;;;;;;2.45;1.52;;;;;;;31.60;32.98;100883.78;4836318;29;20615;-76
2023/05/20 02:03:18;;;;;;;5.32;1.80;;;;;;;31.57;35.36;100875.09;4849460;29;20058;-73
2023/05/20 02:05:46;;;;;;;6.43;1.70;;;;;;;31.47;35.40;100870.25;4832426;29;20537;-73
2023/05/20 02:08:16;;;;;;;1.95;1.30;;;;;;;31.37;34.87;100871.69;4825909;29;20778;-75
2023/05/20 02:10:45;;;;;;;2.10;1.70;;;;;;;31.29;36.14;100868.56;4836944;29;20050;-75
2023/05/20 02:13:14;;;;;;;4.18;1.90;;;;;;;31.27;36.24;100878.50;4834727;29;20118;-75
2023/05/20 02:15:43;;;;;;;4.85;1.90;;;;;;;31.24;35.88;100873.31;4837317;29;20054;-74
2023/05/20 02:18:12;;;;;;;6.10;1.65;;;;;;;31.18;36.62;100879.00;4831981;29;20111;-73
2023/05/20 02:20:41;;;;;;;6.53;1.95;;;;;;;31.07;35.97;100893.81;4834332;29;20058;-73
2023/05/20 02:23:09;;;;;;;4.93;2.03;;;;;;;30.98;35.66;100898.78;4829128;29;20050;-73
2023/05/20 02:25:40;;;;;;;5.30;1.90;;;;;;;30.88;37.34;100904.63;4835757;29;20106;-72
2023/05/20 02:28:09;;;;;;;5.70;1.98;;;;;;;30.79;37.28;100898.88;4832458;29;20050;-72
2023/05/20 02:30:38;;;;;;;5.22;1.50;;;;;;;30.68;36.78;100886.94;4831111;29;20056;-74
2023/05/20 02:33:08;;;;;;;4.72;1.85;;;;;;;30.60;35.31;100899.81;4840328;29;20057;-73
2023/05/20 02:35:37;;;;;;;6.15;1.52;;;;;;;30.52;36.18;100896.69;4851813;29;20057;-74
2023/05/20 02:38:05;;;;;;;2.78;1.52;;;;;;;30.44;35.81;100893.53;4857868;29;20046;-74
2023/05/20 02:40:34;;;;;;;3.17;1.38;;;;;;;30.32;35.55;100904.84;4857969;29;20105;-74
2023/05/20 02:43:04;;;;;;;2.47;1.50;;;;;;;30.19;35.94;100908.13;4859526;29;20560;-76
2023/05/20 02:45:33;;;;;;;3.35;1.73;;;;;;;30.07;37.03;100903.38;4855020;29;20045;-76
2023/05/20 02:48:01;;;;;;;3.47;1.67;;;;;;;29.93;36.28;100916.53;4847255;29;20056;-75
2023/05/20 02:50:30;;;;;;;3.30;1.40;;;;;;;29.78;37.32;100916.34;4857189;29;20057;-73
2023/05/20 02:52:58;;;;;;;2.78;1.45;;;;;;;29.67;37.69;100918.63;4837692;29;20069;-73
2023/05/20 02:55:27;;;;;;;2.75;1.30;;;;;;;29.56;37.40;100919.13;4847597;29;20910;-71
2023/05/20 02:57:55;;;;;;;2.15;1.30;;;;;;;29.43;38.16;100925.97;4841632;29;20050;-73
2023/05/20 03:00:27;;;;;;;4.80;1.40;;;;;;;29.30;39.29;100931.03;4837818;29;20053;-73
2023/05/20 03:02:56;;;;;;;7.32;1.70;;;;;;;29.17;41.61;100932.53;4852015;29;20140;-72
2023/05/20 03:05:26;;;;;;;6.10;1.58;;;;;;;29.07;39.99;100921.38;4851166;29;20105;-73
2023/05/20 03:07:54;;;;;;;5.05;1.42;;;;;;;28.97;39.70;100915.59;4852829;29;20064;-74
2023/05/20 03:10:23;;;;;;;2.25;1.85;;;;;;;28.84;39.60;100925.09;4854121;29;20090;-76
2023/05/20 03:12:51;;;;;;;2.45;1.40;;;;;;;28.74;40.15;100923.72;4850811;29;20053;-75
2023/05/20 03:15:20;;;;;;;2.67;1.63;;;;;;;28.64;40.98;100928.59;4854813;29;20110;-74
2023/05/20 03:17:51;;;;;;;3.88;1.35;;;;;;;28.54;40.22;100936.13;4844290;29;20137;-74
2023/05/20 03:20:19;;;;;;;5.95;1.63;;;;;;;28.41;41.46;100927.75;4846759;29;20073;-75
2023/05/20 03:22:54;;;;;;;3.65;1.40;;;;;;;28.32;41.46;100938.78;4845945;29;20057;-76
2023/05/20 03:25:25;;;;;;;7.05;1.27;;;;;;;28.18;42.47;100947.34;4849424;29;20628;-74
2023/05/20 03:27:53;;;;;;;2.50;1.42;;;;;;;28.06;41.57;100954.94;4859005;29;20049;-72
2023/05/20 03:30:22;;;;;;;1.73;1.25;;;;;;;27.98;41.78;100960.56;4851857;29;20151;-74
2023/05/20 03:32:52;;;;;;;2.88;1.70;;;;;;;27.91;41.36;100973.25;4853942;29;20046;-76
2023/05/20 03:35:21;;;;;;;3.95;1.80;;;;;;;27.84;41.06;100976.22;4864446;29;20060;-75
2023/05/20 03:37:50;;;;;;;3.67;1.83;;;;;;;27.77;41.42;100979.06;4867334;29;20600;-75
2023/05/20 03:40:19;;;;;;;3.83;1.45;;;;;;;27.72;41.41;100989.00;4848972;29;20049;-73
2023/05/20 03:42:49;;;;;;;2.60;1.85;;;;;;;27.61;42.03;100991.22;4858215;29;20542;-76
2023/05/20 03:45:18;;;;;;;4.60;1.63;;;;;;;27.46;42.45;100991.78;4852955;29;20100;-75
2023/05/20 03:47:53;;;;;;;3.85;1.55;;;;;;;27.33;42.97;100996.69;4851921;29;20468;-76
2023/05/20 03:50:21;;;;;;;4.55;1.67;;;;;;;27.23;43.19;101006.75;4860476;29;20057;-73
2023/05/20 03:52:50;;;;;;;3.97;1.65;;;;;;;27.16;43.73;100999.91;4861654;29;20045;-80
2023/05/20 03:55:19;;;;;;;5.47;1.85;;;;;;;27.08;43.75;101007.31;4855606;29;20049;-77
2023/05/20 03:57:48;;;;;;;5.40;1.50;;;;;;;26.99;44.81;101005.81;4854548;29;20128;-77
2023/05/20 04:00:17;;;;;;;6.15;1.58;;;;;;;26.83;45.53;101013.44;4857316;29;20064;-76
2023/05/20 04:02:46;;;;;;;4.35;1.42;;;;;;;26.68;45.80;101019.28;4858071;29;20149;-77
2023/05/20 04:05:16;;;;;;;2.47;1.33;;;;;;;26.60;43.55;101016.03;4856426;29;20158;-74
2023/05/20 04:07:45;;;;;;;2.50;1.50;;;;;;;26.55;43.76;101018.81;4855920;29;20972;-76
2023/05/20 04:10:13;;;;;;;3.78;1.48;;;;;;;26.49;45.91;101017.19;4849012;29;20130;-75
2023/05/20 04:12:42;;;;;;;4.15;1.42;;;;;;;26.38;45.30;101024.63;4857264;29;21521;-75
2023/05/20 04:15:12;;;;;;;3.55;1.42;;;;;;;26.35;44.51;101027.38;4855360;29;20049;-76
2023/05/20 04:17:40;;;;;;;6.40;1.55;;;;;;;26.31;44.45;101031.91;4864052;29;20052;-74
2023/05/20 04:20:10;;;;;;;2.78;1.42;;;;;;;26.26;44.09;101035.63;4859819;29;20523;-73
2023/05/20 04:22:41;;;;;;;2.92;1.48;;;;;;;26.25;43.46;101044.50;4856474;29;20145;-75
2023/05/20 04:25:10;;;;;;;2.67;1.50;;;;;;;26.21;44.57;101050.84;4852349;29;20046;-74
2023/05/20 04:27:39;;;;;;;3.53;1.60;;;;;;;26.15;43.53;101051.00;4856953;29;20132;-74
2023/05/20 04:30:09;;;;;;;2.00;1.42;;;;;;;26.07;43.81;101057.41;4853944;29;20049;-73
2023/05/20 04:32:37;;;;;;;2.20;1.60;;;;;;;26.03;44.22;101068.16;4854260;29;20700;-74
2023/05/20 04:35:10;;;;;;;4.53;1.67;;;;;;;25.98;44.25;101068.31;4869444;29;20575;-72
2023/05/20 04:37:41;;;;;;;3.85;1.55;;;;;;;25.93;43.63;101070.22;4856769;29;20077;-74
2023/05/20 04:40:11;;;;;;;5.13;1.83;;;;;;;25.87;43.97;101075.69;4853811;29;20057;-75
2023/05/20 04:42:39;;;;;;;2.67;1.80;;;;;;;25.79;45.09;101080.31;4857205;29;20050;-74
2023/05/20 04:51:16;;;;;;;3.85;1.83;;;;;;;25.50;45.30;101079.34;4852300;29;20116;-73
2023/05/20 04:53:46;;;;;;;2.25;1.55;;;;;;;25.42;44.83;101090.16;4863446;29;20053;-73
2023/05/20 04:56:15;;;;;;;3.42;1.40;;;;;;;25.34;44.92;101085.97;4872707;29;20049;-71
2023/05/20 04:58:44;;;;;;;3.67;1.63;;;;;;;25.23;45.21;101096.84;4871477;29;20053;-74
2023/05/20 05:01:13;;;;;;;3.63;1.52;;;;;;;25.12;45.24;101104.16;4854536;29;20045;-72
2023/05/20 05:03:41;;;;;;;1.73;1.40;;;;;;;25.02;45.38;101108.81;4856149;29;20073;-73
2023/05/20 05:06:11;;;;;;;5.47;1.67;;;;;;;24.93;45.96;101109.06;4859071;29;20104;-74
2023/05/20 05:08:39;;;;;;;1.75;1.45;;;;;;;24.88;46.08;101117.09;4851684;29;20109;-72
2023/05/20 05:11:09;;;;;;;2.10;1.38;;;;;;;24.81;46.68;101119.03;4843561;29;20102;-72
2023/05/20 05:13:38;;;;;;;2.30;1.58;;;;;;;24.77;46.93;101121.78;4841895;29;20604;-73
2023/05/20 05:16:07;;;;;;;3.10;1.75;;;;;;;24.72;46.56;101126.31;4855948;29;20102;-73
2023/05/20 05:18:35;;;;;;;4.43;1.92;;;;;;;24.62;45.68;101121.25;4846208;29;20058;-73
2023/05/20 05:21:05;;;;;;;2.38;1.52;;;;;;;24.55;47.18;101124.91;4844189;29;20058;-71
2023/05/20 05:23:34;;;;;;;3.42;1.60;;;;;;;24.46;46.55;101130.38;4856911;29;20493;-72
2023/05/20 05:26:02;;;;;;;6.57;1.88;;;;;;;24.39;46.96;101134.94;4857889;29;20062;-71
2023/05/20 05:28:33;;;;;;;3.88;1.70;;;;;;;24.31;47.75;101142.16;4865877;29;20049;-74
2023/05/20 05:31:02;;;;;;;2.33;1.60;;;;;;;24.25;47.57;101144.94;4862515;29;20431;-75
2023/05/20 05:33:31;;;;;;;2.33;1.55;;;;;;;24.21;47.32;101152.09;4851825;29;20117;-74
2023/05/20 05:36:01;;;;;;;3.78;1.58;;;;;;;24.17;49.77;101149.53;4859773;29;20061;-74
2023/05/20 05:38:29;;;;;;;2.85;1.92;;;;;;;24.05;49.59;101153.28;4854583;29;20049;-71
2023/05/20 05:40:58;;;;;;;5.72;1.73;;;;;;;24.02;49.48;101162.13;4846081;29;20102;-74
2023/05/20 05:43:26;;;;;;;3.75;1.73;;;;;;;23.79;48.59;101174.94;4850513;29;20056;-74
2023/05/20 05:45:57;;;;;;;4.35;1.75;;;;;;;23.47;49.73;101194.81;4853626;29;20285;-73
2023/05/20 05:48:26;;;;;;;4.93;1.42;;;;;;;23.17;50.82;101189.16;4862509;29;20053;-76
2023/05/20 05:50:54;;;;;;;6.53;1.95;;;;;;;22.85;51.81;101192.25;4862900;29;20053;-74
2023/05/20 05:53:23;;;;;;;4.88;1.98;;;;;;;22.60;52.54;101199.63;4862422;29;20198;-75
2023/05/20 05:55:51;;;;;;;3.17;1.50;;;;;;;22.33;53.40;101193.81;4864058;29;20049;-74
2023/05/20 05:58:20;;;;;;;3.58;1.70;;;;;;;22.19;54.04;101190.44;4853539;29;20054;-73
2023/05/20 06:00:51;;;;;;;5.43;1.85;;;;;;;22.05;54.67;101201.13;4862396;29;20053;-73
2023/05/20 06:03:21;;;;;;;7.22;2.22;;;;;;;21.92;56.29;101204.78;4857912;29;20053;-74
2023/05/20 06:05:50;;;;;;;3.90;1.85;;;;;;;21.72;56.66;101197.09;4856442;29;20061;-73
2023/05/20 06:08:18;;;;;;;7.30;2.47;;;;;;;21.57;57.66;101191.97;4845643;29;20053;-74
2023/05/20 06:10:49;;;;;;;7.30;2.33;;;;;;;21.44;58.54;101206.97;4852870;29;20109;-75
2023/05/20 06:13:18;;;;;;;3.88;2.17;;;;;;;21.26;59.97;101200.97;4865055;29;20140;-76
2023/05/20 06:15:46;;;;;;;5.22;2.13;;;;;;;21.15;60.28;101215.06;4854183;29;20132;-74
2023/05/20 06:18:15;;;;;;;6.10;2.15;;;;;;;21.06;60.64;101211.63;4864513;29;20077;-75
2023/05/20 06:20:45;;;;;;;5.03;2.10;;;;;;;20.92;61.18;101211.69;4865616;29;20136;-74
2023/05/20 06:23:14;;;;;;;3.97;2.10;;;;;;;20.84;61.51;101204.72;4868951;29;20648;-75
2023/05/20 06:25:42;;;;;;;5.22;2.00;;;;;;;20.78;61.80;101210.03;4854338;29;20065;-75
2023/05/20 06:28:19;;;;;;;4.32;2.28;;;;;;;20.66;62.56;101201.34;4862368;29;20101;-74
2023/05/20 06:30:48;;;;;;;4.75;2.50;;;;;;;20.53;62.41;101199.59;4854732;29;20059;-74
2023/05/20 06:33:18;;;;;;;4.90;2.17;;;;;;;20.46;62.73;101200.53;4859923;29;20121;-75
2023/05/20 06:36:02;;;;;;;4.72;1.88;;;;;;;20.36;64.62;101201.41;4853802;29;20055;-75
2023/05/20 06:38:30;;;;;;;4.22;1.55;;;;;;;20.23;64.10;101201.47;4851765;29;20161;-77
2023/05/20 06:40:59;;;;;;;3.10;1.30;;;;;;;20.16;64.81;101201.47;4850320;29;20065;-77
2023/05/20 06:43:27;;;;;;;3.90;1.88;;;;;;;20.07;65.01;101215.53;4858332;29;20091;-74
2023/05/20 06:45:56;;;;;;;2.22;1.45;;;;;;;20.06;64.36;101209.38;4856407;29;20049;-75
2023/05/20 06:48:24;;;;;;;5.47;1.95;;;;;;;20.04;64.01;101211.16;4854045;29;20054;-75
2023/05/20 06:50:55;;;;;;;2.35;1.27;;;;;;;20.01;63.92;101207.66;4860031;29;20056;-75
2023/05/20 06:53:24;;;;;;;3.05;1.15;;;;;;;19.95;64.21;101210.28;4847706;29;20066;-76
2023/05/20 06:55:54;;;;;;;2.75;1.50;;;;;;;19.90;64.72;101212.06;4850526;29;20050;-75
2023/05/20 06:58:24;;;;;;;3.17;1.52;;;;;;;19.83;65.03;101205.94;4854327;29;20045;-75
2023/05/20 07:00:52;;;;;;;2.90;1.60;;;;;;;19.67;65.66;101205.03;4854646;29;20060;-75
2023/05/20 07:03:21;;;;;;;4.25;1.35;;;;;;;19.68;66.06;101225.19;4855060;29;20053;-73
2023/05/20 07:05:51;;;;;;;2.50;1.48;;;;;;;19.61;66.33;101231.31;4846745;29;20050;-75
2023/05/20 07:08:21;;;;;;;3.65;1.50;;;;;;;19.55;67.40;101231.31;4849927;29;20057;-75
2023/05/20 07:10:50;;;;;;;2.45;1.20;;;;;;;19.45;66.83;101215.56;4853562;29;20064;-74
2023/05/20 07:13:18;;;;;;;3.95;1.80;;;;;;;19.41;67.22;101208.56;4854860;29;20065;-74
2023/05/20 07:15:48;;;;;;;4.55;1.52;;;;;;;19.39;67.04;101207.69;4860017;29;20057;-74
2023/05/20 07:18:16;;;;;;;3.22;1.50;;;;;;;19.39;67.17;101205.06;4866978;29;20057;-75
2023/05/20 07:20:45;;;;;;;3.65;1.20;;;;;;;19.37;67.49;101206.81;4856958;29;20057;-74
2023/05/20 07:23:14;;;;;;;3.78;1.60;;;;;;;19.38;67.38;101203.31;4867308;29;20147;-74
2023/05/20 07:25:44;;;;;;;3.00;1.27;;;;;;;19.36;67.25;101202.44;4857941;29;20515;-74
2023/05/20 07:28:12;;;;;;;3.60;1.67;;;;;;;19.35;67.46;101197.19;4871318;29;20068;-75
2023/05/20 07:30:41;;;;;;;2.22;1.50;;;;;;;19.35;67.59;101202.44;4862051;29;20062;-74
2023/05/20 07:33:10;;;;;;;2.38;1.35;;;;;;;19.28;69.04;101214.66;4857859;29;20059;-74
2023/05/20 07:35:38;;;;;;;3.13;1.35;;;;;;;19.18;70.18;101215.53;4863480;29;20066;-75
2023/05/20 07:38:07;;;;;;;6.03;1.83;;;;;;;19.09;71.41;101212.91;4860202;29;20042;-74
2023/05/20 07:40:37;;;;;;;2.47;1.27;;;;;;;19.04;70.52;101226.00;4857061;29;20292;-74
2023/05/20 07:43:08;;;;;;;4.45;1.60;;;;;;;19.00;70.48;101217.25;4869030;29;20083;-74
2023/05/20 07:45:37;;;;;;;3.80;1.58;;;;;;;18.98;70.36;101211.13;4863209;29;20053;-74
2023/05/20 07:48:07;;;;;;;3.53;1.52;;;;;;;18.98;70.75;101213.75;4858284;29;20143;-73
2023/05/20 07:50:39;;;;;;;5.45;1.48;;;;;;;18.99;70.80;101210.28;4853597;29;20049;-73
2023/05/20 07:53:08;;;;;;;1.70;1.27;;;;;;;19.00;70.93;101217.25;4863461;29;20053;-74
2023/05/20 07:55:37;;;;;;;3.92;1.58;;;;;;;19.02;70.70;101214.63;4856364;29;20049;-73
2023/05/20 07:58:07;;;;;;;6.28;1.73;;;;;;;19.01;70.91;101224.25;4856629;29;20133;-74
2023/05/20 08:00:36;;;;;;;5.95;1.70;;;;;;;18.98;71.07;101213.75;4858995;29;20053;-74
2023/05/20 08:03:06;;;;;;;4.70;1.33;;;;;;;18.89;71.87;101208.47;4857511;29;20141;-74
2023/05/20 08:05:37;;;;;;;2.33;1.33;;;;;;;18.83;71.46;101208.50;4863347;29;20078;-74
2023/05/20 08:08:06;;;;;;;2.75;1.63;;;;;;;18.80;72.09;101218.94;4851856;29;20061;-74
2023/05/20 08:10:34;;;;;;;3.17;1.30;;;;;;;18.79;72.04;101206.72;4862359;29;20053;-74
2023/05/20 08:13:03;;;;;;;2.25;1.30;;;;;;;18.71;71.75;101205.78;4859537;29;20137;-74
2023/05/20 08:15:33;;;;;;;2.83;1.27;;;;;;;18.67;71.32;101204.00;4855659;29;20124;-73
2023/05/20 08:18:02;;;;;;;5.85;2.25;;;;;;;18.64;71.25;101202.25;4852860;29;20045;-72
2023/05/20 08:20:31;;;;;;;3.97;1.05;;;;;;;18.62;71.03;101197.03;4856781;29;20053;-73
2023/05/20 08:22:59;;;;;;;2.85;1.42;;;;;;;18.59;71.33;101193.50;4866811;29;20053;-72
2023/05/20 08:25:28;;;;;;;3.38;1.35;;;;;;;18.56;73.20;101188.25;4858126;29;20177;-73
2023/05/20 08:27:57;;;;;;;2.28;1.23;;;;;;;18.50;70.79;101183.88;4852156;29;20136;-73
2023/05/20 08:30:25;;;;;;;2.67;0.90;;;;;;;18.43;61.72;101187.34;4859770;29;20053;-73
2023/05/20 08:32:55;;;;;;;2.05;1.00;;;;;;;18.47;63.24;101191.72;4856495;29;20053;-74
2023/05/20 08:35:24;;;;;;;1.83;0.52;;;;;;;18.43;58.24;101190.81;4853856;29;20128;-72
2023/05/20 08:37:54;;;;;;;3.50;0.60;;;;;;;18.47;59.41;101194.34;4855530;29;20776;-73
2023/05/20 08:40:23;;;;;;;2.03;0.88;;;;;;;18.54;57.01;101187.38;4857166;29;20084;-73
2023/05/20 08:42:53;;;;;;;4.03;1.13;;;;;;;18.52;58.05;101186.50;4848843;29;20046;-72
2023/05/20 08:45:26;;;;;;;1.45;0.85;;;;;;;18.61;57.22;101197.00;4848965;29;20520;-75
2023/05/20 08:47:56;;;;;;;1.33;0.75;;;;;;;18.61;64.02;101203.13;4856367;29;20110;-74
2023/05/20 08:50:25;;;;;;;1.33;0.50;;;;;;;18.58;56.62;101197.00;4861303;29;20796;-75
2023/05/20 08:52:54;;;;;;;1.05;0.50;;;;;;;18.60;55.23;101195.28;4857317;29;20105;-75
2023/05/20 08:55:26;;;;;;;1.20;0.65;;;;;;;18.66;54.32;101207.50;4853292;29;20461;-74
2023/05/20 08:57:56;;;;;;;1.33;0.63;;;;;;;18.72;54.66;101204.94;4867835;29;20053;-74
2023/05/20 09:00:27;;;;;;;1.13;0.70;;;;;;;18.77;55.95;101211.09;4859336;29;20123;-74
2023/05/20 09:02:58;;;;;;;3.03;0.93;;;;;;;18.80;62.31;101213.69;4851637;29;20666;-74
2023/05/20 09:05:26;;;;;;;2.38;1.67;;;;;;;18.67;68.15;101223.25;4861464;29;20060;-74
2023/05/20 09:08:07;;;;;;;1.77;1.33;;;;;;;18.45;70.07;101222.28;4862447;29;20109;-76
2023/05/20 09:10:36;;;;;;;3.83;2.50;;;;;;;18.30;72.59;101222.19;4856705;29;20094;-76
2023/05/20 09:13:06;;;;;;;7.93;2.67;;;;;;;18.17;73.05;101230.00;4852042;29;20045;-74
2023/05/20 09:15:35;;;;;;;4.00;2.30;;;;;;;18.10;75.04;101228.22;4851965;29;20127;-76
2023/05/20 09:18:06;;;;;;;3.72;2.83;;;;;;;17.95;75.84;101238.56;4860069;29;20143;-73
2023/05/20 09:20:37;;;;;;;4.80;2.53;;;;;;;17.86;76.55;101256.84;4854218;29;20045;-73
2023/05/20 09:23:07;;;;;;;4.43;2.45;;;;;;;17.82;77.08;101255.06;4858822;29;20109;-75
2023/05/20 09:25:37;;;;;;;2.83;2.17;;;;;;;17.74;78.45;101253.22;4859973;29;20137;-73
2023/05/20 09:28:08;;;;;;;3.75;1.95;;;;;;;17.56;79.74;101253.06;4859173;29;20052;-74
2023/05/20 09:30:36;;;;;;;4.65;2.08;;;;;;;17.41;81.39;101259.06;4855708;29;20061;-73
2023/05/20 09:33:08;;;;;;;3.97;1.95;;;;;;;17.34;81.49;101257.22;4850588;29;20057;-73
2023/05/20 09:35:37;;;;;;;5.00;2.15;;;;;;;17.32;81.22;101262.47;4844911;29;20066;-73
2023/05/20 09:38:07;;;;;;;3.33;1.90;;;;;;;17.30;81.21;101261.56;4839984;29;20402;-74
2023/05/20 09:40:39;;;;;;;6.18;1.90;;;;;;;17.22;82.14;101260.59;4839554;29;20496;-74
2023/05/20 09:43:09;;;;;;;2.67;1.85;;;;;;;17.18;82.46;101256.22;4838711;29;20049;-74
2023/05/20 09:45:39;;;;;;;2.85;1.73;;;;;;;17.18;82.62;101258.84;4835626;29;20050;-73
2023/05/20 09:48:11;;;;;;;3.45;1.70;;;;;;;17.10;83.72;101257.88;4830097;29;20049;-73
2023/05/20 09:50:41;;;;;;;4.43;1.60;;;;;;;17.02;83.94;101263.03;4840701;29;20053;-73
2023/05/20 09:53:11;;;;;;;6.63;2.05;;;;;;;17.02;84.02;101269.97;4839927;29;20124;-73
2023/05/20 09:55:40;;;;;;;3.42;2.00;;;;;;;17.02;85.36;101262.13;4843332;29;20118;-74
2023/05/20 09:58:13;;;;;;;8.20;1.83;;;;;;;16.80;86.98;101264.50;4836483;29;20121;-75
2023/05/20 10:00:42;;;;;;;2.78;1.90;;;;;;;16.77;86.75;101264.44;4831593;29;20065;-73
2023/05/20 10:03:12;;;;;;;3.83;1.80;;;;;;;16.80;85.60;101268.84;4837611;29;20054;-74
2023/05/20 10:05:46;;;;;;;3.97;1.83;;;;;;;16.75;87.67;101263.53;4836885;29;20660;-74
2023/05/20 10:08:40;;;;;;;3.58;2.17;;;;;;;16.71;87.09;101259.13;4837671;29;20066;-73
2023/05/20 10:11:17;;;;;;;2.35;1.70;;;;;;;16.69;86.96;101261.72;4835841;29;20058;-73
2023/05/20 10:14:00;;;;;;;2.75;1.90;;;;;;;16.71;86.90;101256.50;4835817;29;20215;-72
2023/05/20 10:16:45;;;;;;;2.42;1.67;;;;;;;16.72;86.10;101260.88;4839588;29;20118;-72
2023/05/20 10:19:28;;;;;;;2.45;1.55;;;;;;;16.76;85.42;101260.06;4835385;29;20129;-73
2023/05/20 10:22:01;;;;;;;3.85;2.03;;;;;;;16.76;84.98;101257.44;4833741;29;20053;-74
2023/05/20 10:24:33;;;;;;;4.82;1.75;;;;;;;16.76;84.96;101268.75;4838191;29;20084;-74
2023/05/20 10:27:03;;;;;;;3.17;1.70;;;;;;;16.75;84.90;101261.78;4833803;29;20046;-74
2023/05/20 10:29:43;;;;;;;5.43;2.00;;;;;;;16.73;84.89;101262.63;4837252;29;20057;-74
2023/05/20 10:32:12;;;;;;;2.45;1.67;;;;;;;16.74;85.35;101272.22;4837424;29;20109;-74
2023/05/20 10:34:50;;;;;;;3.90;1.60;;;;;;;16.73;84.96;101265.25;4833312;29;20058;-73
2023/05/20 10:37:30;;;;;;;3.53;1.75;;;;;;;16.72;84.67;101267.00;4861432;29;20109;-73
2023/05/20 10:40:08;;;;;;;2.22;1.50;;;;;;;16.62;84.42;101248.56;4848839;29;20050;-74
2023/05/20 10:42:36;;;;;;;5.22;1.48;;;;;;;16.70;84.05;101271.31;4860901;29;20049;-74
2023/05/20 10:45:06;;;;;;;2.67;1.73;;;;;;;16.64;86.25;101271.22;4856464;29;20712;-74
2023/05/20 10:47:34;;;;;;;6.03;2.25;;;;;;;16.58;86.74;101267.66;4847404;29;20045;-73
2023/05/20 10:50:05;;;;;;;4.60;1.73;;;;;;;16.53;87.44;101263.25;4849824;29;20053;-74
2023/05/20 10:52:35;;;;;;;2.00;1.77;;;;;;;16.48;87.29;101267.53;4855385;29;20049;-73
2023/05/20 10:55:05;;;;;;;2.72;1.60;;;;;;;16.47;87.50;101271.03;4859863;29;20060;-74
2023/05/20 10:57:35;;;;;;;2.67;1.33;;;;;;;16.45;88.07;101264.91;4860765;29;20121;-74
2023/05/20 11:00:09;;;;;;;2.53;1.55;;;;;;;16.42;88.48;101266.56;4856934;29;20117;-73
2023/05/20 11:02:38;;;;;;;3.03;1.95;;;;;;;16.40;87.62;101269.19;4851628;29;20056;-74
2023/05/20 11:05:12;;;;;;;2.10;1.25;;;;;;;16.35;87.39;101263.00;4857871;29;20045;-73
2023/05/20 11:07:41;;;;;;;2.72;1.63;;;;;;;16.33;88.20;101272.53;4856667;29;20049;-73
2023/05/20 11:10:11;;;;;;;3.97;1.67;;;;;;;16.28;88.11;101258.56;4855252;29;20482;-74
2023/05/20 11:12:40;;;;;;;3.05;1.50;;;;;;;16.26;88.06;101266.38;4854298;29;20045;-74
2023/05/20 11:15:12;;;;;;;4.43;1.60;;;;;;;16.24;88.92;101269.81;4859002;29;20060;-73
2023/05/20 11:17:51;;;;;;;2.50;1.73;;;;;;;16.23;88.33;101275.91;4854842;29;20050;-74
2023/05/20 11:20:23;;;;;;;5.30;1.65;;;;;;;16.22;88.48;101272.41;4854008;29;20045;-74
2023/05/20 11:22:52;;;;;;;2.47;1.67;;;;;;;16.21;89.24;101278.47;4856975;29;20049;-75
2023/05/20 11:25:22;;;;;;;4.03;1.77;;;;;;;16.18;90.38;101288.00;4855885;29;20050;-74
2023/05/20 11:27:51;;;;;;;4.45;1.88;;;;;;;16.16;89.57;101295.81;4857609;29;20478;-74
2023/05/20 11:30:20;;;;;;;2.17;1.40;;;;;;;16.16;88.94;101289.72;4861747;29;20519;-74
2023/05/20 11:32:59;;;;;;;3.83;1.85;;;;;;;16.13;88.83;101296.66;4857323;29;20050;-74
2023/05/20 11:35:33;;;;;;;2.92;1.48;;;;;;;16.15;89.13;101295.78;4859956;29;20102;-74
2023/05/20 11:38:05;;;;;;;6.53;2.30;;;;;;;16.15;89.16;101298.38;4864434;29;20049;-74
2023/05/20 11:40:34;;;;;;;3.35;1.50;;;;;;;16.14;88.86;101297.50;4870397;29;20064;-74
2023/05/20 11:43:04;;;;;;;4.22;1.48;;;;;;;16.12;88.01;101300.09;4864159;29;20057;-73